Latest Weather Observations for Broome Port

IDW60801

Issued at 6:32 pm WST Sunday 19 April 2015 (issued every 30 minutes, with the page automatically refreshed every 10 minutes)

About weather observations | Map of weather stations | Latest weather observations for WA | Other Formats
Station Details ID: 003102 Name: BROOME NTC AWS Lat: -18.00 Lon: 122.22 Height: 0.0 m
Data from the previous 72 hours. | See also: Recent months for locations in Western Australia
Date/Time
WST
Temp
°C
App
Temp
°C
Dew
Point
Rel
Hum
%
Delta-T
°C
Wind Press
QNH
hPa
Press
MSL
hPa
Rain
since 9 am
mm
Dir
 
Spd
km/h
Gust
km/h
Spd
kts
Gust
kts
19/06:30pm 25.4 - - - - SSE 35 39 19 21 1012.9 1012.8 -
19/06:00pm 25.2 - - - - S 41 48 22 26 1012.5 1012.4 -
19/05:30pm 24.8 - - - - SSW 35 43 19 23 1011.9 1011.8 -
19/05:00pm 26.0 - - - - SSW 28 35 15 19 1011.5 1011.4 -
19/04:30pm 25.5 - - - - SSW 33 41 18 22 1011.1 1011.0 -
19/04:00pm 25.4 - - - - SW 35 44 19 24 1011.0 1010.9 -
19/03:54pm 25.3 - - - - SW 33 44 18 24 1011.0 1010.9 -
19/03:30pm 27.7 - - - - SSW 19 24 10 13 1010.4 1010.3 -
19/03:00pm 25.7 - - - - W 28 37 15 20 1010.0 1009.9 -
19/02:30pm 25.2 - - - - WNW 35 43 19 23 1010.4 1010.3 -
19/02:00pm 25.7 - - - - NW 32 41 17 22 1010.2 1010.1 -
19/01:30pm 28.6 - - - - E 20 30 11 16 1010.6 1010.5 -
19/01:00pm 31.0 - - - - SE 17 20 9 11 1010.5 1010.4 -
19/12:30pm 31.2 - - - - ESE 19 24 10 13 1011.0 1010.9 -
19/12:00pm 31.1 - - - - ESE 17 24 9 13 1011.4 1011.3 -
19/11:30am 30.8 - - - - ESE 22 30 12 16 1011.5 1011.4 -
19/11:00am 30.5 - - - - ESE 22 28 12 15 1011.8 1011.7 -
19/10:30am 30.3 - - - - ESE 26 32 14 17 1012.5 1012.4 -
19/10:00am 29.9 - - - - ESE 32 39 17 21 1012.7 1012.6 -
19/09:30am 29.5 - - - - ESE 39 44 21 24 1012.3 1012.2 -
19/09:00am 29.0 - - - - ESE 33 44 18 24 1012.1 1012.0 -
19/08:30am 28.5 - - - - ESE 39 48 21 26 1012.2 1012.1 -
19/08:00am 28.3 - - - - ESE 35 46 19 25 1012.2 1012.1 -
19/07:30am 28.3 - - - - ESE 33 39 18 21 1012.4 1012.3 -
19/07:00am 28.5 - - - - ESE 35 41 19 22 1012.0 1011.9 -
19/06:30am 28.4 - - - - ESE 30 33 16 18 1011.3 1011.2 -
19/06:00am 28.6 - - - - SE 30 35 16 19 1010.8 1010.7 -
19/05:30am 28.7 - - - - SE 32 39 17 21 1010.3 1010.2 -
19/05:00am 28.9 - - - - SE 35 39 19 21 1009.9 1009.8 -
19/04:30am 28.9 - - - - SE 35 43 19 23 1009.5 1009.4 -
19/04:00am 29.1 - - - - SE 37 43 20 23 1009.5 1009.4 -
19/03:30am 29.3 - - - - SE 35 43 19 23 1009.6 1009.5 -
19/03:00am 29.4 - - - - SE 33 41 18 22 1009.8 1009.7 -
19/02:30am 29.4 - - - - SE 32 35 17 19 1009.9 1009.8 -
19/02:00am 29.5 - - - - SSE 28 32 15 17 1010.3 1010.2 -
19/01:30am 29.8 - - - - SSE 24 30 13 16 1010.6 1010.5 -
19/01:00am 30.0 - - - - SE 24 30 13 16 1010.9 1010.8 -
19/12:30am 30.3 - - - - SE 26 32 14 17 1011.0 1010.9 -
19/12:00am 30.4 - - - - SE 30 35 16 19 1011.3 1011.2 -
 
Date/Time
WST
Temp
°C
App
Temp
°C
Dew
Point
Rel
Hum
%
Delta-T
°C
Wind Press
QNH
hPa
Press
MSL
hPa
Rain
since 9 am
mm
Dir
 
Spd
km/h
Gust
km/h
Spd
kts
Gust
kts
18/11:30pm 30.6 - - - - SE 32 35 17 19 1011.6 1011.5 -
18/11:00pm 31.0 - - - - SE 30 43 16 23 1011.5 1011.4 -
18/10:30pm 30.9 - - - - SE 32 35 17 19 1011.8 1011.7 -
18/10:00pm 31.4 - - - - SSE 30 37 16 20 1011.7 1011.6 -
18/09:30pm 31.4 - - - - S 24 28 13 15 1011.7 1011.6 -
18/09:00pm 31.3 - - - - SW 19 28 10 15 1011.4 1011.3 -
18/08:30pm 30.1 - - - - SW 11 15 6 8 1011.3 1011.2 -
18/08:00pm 30.2 - - - - WNW 6 11 3 6 1011.0 1010.9 -
18/07:30pm 30.1 - - - - WSW 17 24 9 13 1010.6 1010.5 -
18/07:00pm 30.0 - - - - SW 20 28 11 15 1010.2 1010.1 -
18/06:30pm 30.0 - - - - WSW 15 20 8 11 1010.1 1010.0 -
18/06:00pm 29.8 - - - - WSW 19 26 10 14 1009.4 1009.3 -
18/05:30pm 29.8 - - - - WSW 17 24 9 13 1009.0 1008.9 -
18/05:00pm 30.6 - - - - W 11 19 6 10 1008.8 1008.7 -
18/04:30pm 31.8 - - - - WNW 6 11 3 6 1008.6 1008.5 -
18/04:00pm 31.0 - - - - SW 9 13 5 7 1008.3 1008.2 -
18/03:30pm 32.5 - - - - SW 7 11 4 6 1008.3 1008.2 -
18/03:00pm 32.3 - - - - SW 11 15 6 8 1008.3 1008.2 -
18/02:30pm 31.8 - - - - SW 9 13 5 7 1008.5 1008.4 -
18/02:00pm 32.0 - - - - SW 11 13 6 7 1008.6 1008.5 -
18/01:30pm 31.1 - - - - SW 9 13 5 7 1009.2 1009.1 -
18/01:00pm 30.6 - - - - SW 9 13 5 7 1009.6 1009.5 -
18/12:30pm 30.6 - - - - SW 9 13 5 7 1010.2 1010.1 -
18/12:00pm 30.5 - - - - SW 9 13 5 7 1010.6 1010.5 -
18/11:30am 30.4 - - - - SW 9 11 5 6 1011.3 1011.2 -
18/11:00am 31.2 - - - - CALM 0 4 0 2 1011.6 1011.5 -
18/10:30am 30.7 - - - - NE 2 6 1 3 1012.2 1012.1 -
18/10:00am 29.1 - - - - ESE 17 19 9 10 1012.6 1012.5 -
18/09:30am 28.4 - - - - ESE 17 20 9 11 1012.9 1012.8 -
18/09:00am 27.8 - - - - SE 19 22 10 12 1013.0 1012.9 -
18/08:30am 27.2 - - - - SE 19 22 10 12 1013.1 1013.0 -
18/08:00am 26.8 - - - - SE 20 24 11 13 1012.6 1012.5 -
18/07:30am 26.6 - - - - SE 22 26 12 14 1012.3 1012.2 -
18/07:00am 26.8 - - - - SE 24 32 13 17 1012.0 1011.9 -
18/06:30am 26.5 - - - - SSE 20 24 11 13 1011.5 1011.4 -
18/06:00am 26.7 - - - - SE 20 24 11 13 1011.2 1011.1 -
18/05:30am 26.8 - - - - ESE 20 24 11 13 1011.1 1011.0 -
18/05:00am 26.8 - - - - ESE 20 24 11 13 1010.8 1010.7 -
18/04:30am 26.5 - - - - E 19 20 10 11 1010.8 1010.7 -
18/04:00am 26.5 - - - - E 17 20 9 11 1010.3 1010.2 -
18/03:30am 27.2 - - - - ESE 24 28 13 15 1010.5 1010.4 -
18/03:00am 27.4 - - - - ESE 24 28 13 15 1010.5 1010.4 -
18/02:30am 27.5 - - - - ESE 26 32 14 17 1010.7 1010.6 -
18/02:00am 27.7 - - - - ESE 33 41 18 22 1010.6 1010.5 -
18/01:30am 28.2 - - - - SE 39 46 21 25 1010.8 1010.7 -
18/01:00am 28.2 - - - - SE 35 41 19 22 1011.0 1010.9 -
18/12:30am 28.3 - - - - SE 33 41 18 22 1011.4 1011.3 -
18/12:00am 28.5 - - - - ESE 33 39 18 21 1011.5 1011.4 -
 
Date/Time
WST
Temp
°C
App
Temp
°C
Dew
Point
Rel
Hum
%
Delta-T
°C
Wind Press
QNH
hPa
Press
MSL
hPa
Rain
since 9 am
mm
Dir
 
Spd
km/h
Gust
km/h
Spd
kts
Gust
kts
17/11:30pm 28.3 - - - - ESE 32 39 17 21 1011.7 1011.6 -
17/11:14pm 28.8 - - - - SE 37 46 20 25 1011.9 1011.8 -
17/11:00pm 28.9 - - - - SSE 35 44 19 24 1011.3 1011.2 -
17/10:30pm 29.2 - - - - SSE 39 48 21 26 1011.2 1011.1 -
17/10:00pm 29.8 - - - - SSE 35 43 19 23 1011.3 1011.2 -
17/09:30pm 30.3 - - - - SSE 28 35 15 19 1011.2 1011.1 -
17/09:00pm 30.7 - - - - SSE 30 35 16 19 1011.0 1010.9 -
17/08:30pm 30.9 - - - - SSE 32 37 17 20 1010.9 1010.8 -
17/08:00pm 31.3 - - - - SSE 30 35 16 19 1010.7 1010.6 -
17/07:30pm 31.8 - - - - S 33 39 18 21 1010.3 1010.2 -
17/07:00pm 32.4 - - - - S 30 37 16 20 1010.1 1010.0 -
17/06:30pm 32.7 - - - - SSE 30 33 16 18 1009.4 1009.3 -
17/06:00pm 33.1 - - - - SSE 33 37 18 20 1008.9 1008.8 -
17/05:30pm 33.3 - - - - SSE 33 37 18 20 1008.5 1008.4 -
17/05:00pm 33.5 - - - - SSE 33 37 18 20 1008.4 1008.3 -
17/04:30pm 33.0 - - - - SSE 26 32 14 17 1008.1 1008.0 -
17/04:00pm 33.5 - - - - SSE 28 30 15 16 1007.9 1007.8 -
17/03:30pm 33.7 - - - - SSE 26 32 14 17 1007.9 1007.8 -
17/03:00pm 34.2 - - - - SSE 26 33 14 18 1008.0 1007.9 -
17/02:30pm 33.5 - - - - SSE 24 28 13 15 1008.2 1008.1 -
17/02:00pm 32.7 - - - - SSE 20 24 11 13 1008.3 1008.2 -
17/01:30pm 32.4 - - - - SSE 20 24 11 13 1008.7 1008.6 -
17/01:00pm 32.4 - - - - SSE 22 24 12 13 1009.2 1009.1 -
17/12:30pm 32.4 - - - - SSE 19 22 10 12 1009.7 1009.6 -
17/12:00pm 31.7 - - - - SSE 22 24 12 13 1010.3 1010.2 -
17/11:30am 31.3 - - - - SSE 24 30 13 16 1010.9 1010.8 -
17/11:00am 31.2 - - - - SSE 30 32 16 17 1011.7 1011.6 -
17/10:30am 31.0 - - - - SE 32 35 17 19 1012.2 1012.1 -
17/10:00am 30.7 - - - - SE 26 28 14 15 1012.5 1012.4 -
17/09:30am 30.4 - - - - SE 30 33 16 18 1012.5 1012.4 -
17/09:00am 29.6 - - - - SE 26 30 14 16 1012.7 1012.6 -
17/08:30am 29.1 - - - - SSE 28 35 15 19 1013.1 1013.0 -
17/08:00am 28.7 - - - - S 30 41 16 22 1013.0 1012.9 -
17/07:30am 28.6 - - - - S 28 32 15 17 1013.0 1012.9 -
17/07:00am 28.7 - - - - SSE 26 32 14 17 1012.7 1012.6 -
17/06:30am 28.9 - - - - SSE 28 33 15 18 1012.6 1012.5 -
17/06:00am 29.4 - - - - SSE 24 32 13 17 1012.5 1012.4 -
17/05:30am 29.7 - - - - SE 22 26 12 14 1012.3 1012.2 -
17/05:00am 29.8 - - - - SSE 20 26 11 14 1012.1 1012.0 -
17/04:30am 29.9 - - - - SSE 15 24 8 13 1011.6 1011.5 -
17/04:00am 29.9 - - - - SSE 9 17 5 9 1011.6 1011.5 -
17/03:30am 29.8 - - - - SE 11 13 6 7 1011.5 1011.4 -
17/03:00am 30.2 - - - - SE 13 17 7 9 1011.6 1011.5 -
17/02:30am 30.1 - - - - S 9 13 5 7 1011.4 1011.3 -
17/02:00am 30.0 - - - - SSE 9 11 5 6 1011.6 1011.5 -
17/01:30am 29.8 - - - - S 11 15 6 8 1011.8 1011.7 -
17/01:00am 29.8 - - - - S 15 19 8 10 1011.8 1011.7 -
17/12:30am 29.9 - - - - SSW 20 24 11 13 1012.2 1012.1 -
17/12:00am 30.1 - - - - SSW 24 30 13 16 1012.3 1012.2 -
 
Date/Time
WST
Temp
°C
App
Temp
°C
Dew
Point
Rel
Hum
%
Delta-T
°C
Wind Press
QNH
hPa
Press
MSL
hPa
Rain
since 9 am
mm
Dir
 
Spd
km/h
Gust
km/h
Spd
kts
Gust
kts
16/11:30pm 30.4 - - - - SSW 20 28 11 15 1012.6 1012.5 -
16/11:00pm 30.9 - - - - SW 24 33 13 18 1012.9 1012.8 -
16/10:30pm 30.8 - - - - SW 28 33 15 18 1013.0 1012.9 -
16/10:00pm 30.7 - - - - SW 30 35 16 19 1013.2 1013.1 -
16/09:30pm 30.8 - - - - WSW 32 39 17 21 1013.3 1013.2 -
16/09:00pm 30.5 - - - - WSW 28 33 15 18 1013.4 1013.3 -
16/08:30pm 30.3 - - - - WSW 24 28 13 15 1013.3 1013.2 -
16/08:00pm 30.5 - - - - WSW 20 24 11 13 1013.1 1013.0 -
16/07:30pm 30.7 - - - - WSW 19 24 10 13 1012.7 1012.6 -
16/07:00pm 30.6 - - - - W 17 24 9 13 1012.1 1012.0 -

Other Formats:

Comma delimited format used in spreadsheet applications
http://www.bom.gov.au/fwo/IDW60801/IDW60801.95202.axf

JavaScript Object Notation format (JSON) in row-major order
http://www.bom.gov.au/fwo/IDW60801/IDW60801.95202.json